Cactus Peak, Santa Catalina Island Weather observations

Data are for 10 minute period ending at time listed.
 Day   Time   Solar   Ave.   Ave.  Ave.  Vector    Max.   Stn.    Total
  of    of     Rad.   Air    Rel.  Wind   Wind     Wind   Baro.  Precip.
Year   Day            Temp.  Hum.  Speed  Dir.     Gust   Pres.         
2014   (PST)   W/m2    F      %     mph   deg.      mph    mb.     in.  
------------------------------------------------------------------------
 259    9:40  666.0    99   31.5     6    340.4     9.0    999.0   0.00  
 259    9:50  686.0    98   38.5     3    146.9     5.4    999.0   0.00  
 259   10:00  707.0    98   39.3     5    189.7    11.3    999.0   0.00  
 259   10:10  721.0    88   54.1    10    170.2    15.5    999.0   0.00  
 259   10:20  739.0    89   51.1    10    175.8    12.5    999.0   0.00  
 259   10:30  755.0    89   50.3     8    165.9    11.3    999.0   0.00  
 259   10:40  771.0    94   43.3     4    151.0     7.2    999.0   0.00  
 259   10:50  783.0    91   50.7     6    170.3    10.2    999.0   0.00  
 259   11:00  794.0    90   52.8     3    176.5     6.6    999.0   0.00  
 259   11:10  804.0    94   47.3     3    144.0     6.0    999.0   0.00  
 259   11:20  813.0    95   38.5     5    111.9    10.8    999.0   0.00  
 259   11:30  819.0    97   36.5     6    155.8    10.2    999.0   0.00  
 259   11:40  824.0    96   36.8     6    166.0    10.2    999.0   0.00  
 259   11:50  826.0    96   36.3     6    165.5    10.8    999.0   0.00  
 259   12:00  827.0    96   34.1     7    157.8    11.3    999.0   0.00  
 259   12:10  825.0    96   34.7     8    176.5    13.1    999.0   0.00  
 259   12:20  823.0    96   34.8     7    184.9    11.3    999.0   0.00  
 259   12:30  819.0    96   33.3     7    176.9    11.9    999.0   0.00  
 259   12:40  814.0    98   32.4     5    186.4    10.2    999.0   0.00  
 259   12:50  806.0    98   32.2     5    177.5     9.0    999.0   0.00  
 259   13:00  796.0    99   31.8     4    184.6     9.0    999.0   0.00  
 259   13:10  784.0    97   35.8     5    332.1     7.8    999.0   0.00  
 259   13:20  769.0    94   38.0     8    342.9    10.8    999.0   0.00  
 259   13:30  754.0    92   40.0     7    344.5     9.0    999.0   0.00  
 259   13:40  738.0    91   41.5     6      0.3     8.4    999.0   0.00  
 259   13:50  721.0    91   41.0     6    340.2     8.4    999.0   0.00  
 259   14:00  703.0    92   39.5     5    342.3     7.8    999.0   0.00  
 259   14:10  683.0    93   38.3     6    340.7     7.8    999.0   0.00  
 259   14:20  661.0    93   38.4     5    337.6     7.2    999.0   0.00  
 259   14:30  637.0    92   38.6     5    335.1     7.8    999.0   0.00  
 259   14:40  613.0    92   37.0     5    348.1     6.6    999.0   0.00  
 259   14:50  587.0    91   36.9     7    340.6     9.0    999.0   0.00  
 259   15:00  560.0    91   36.6     7    347.9     9.6    999.0   0.00  
 259   15:10  532.0    92   35.6     7    332.8    10.2    999.0   0.00  
 259   15:20  503.0    92   35.1     8    350.3    10.2    999.0   0.00  
 259   15:30  473.0    92   34.6     8    326.3    10.2    999.0   0.00  
 259   15:40  443.0    92   34.3     8    334.1    10.8    999.0   0.00  
 259   15:50  412.0    93   34.1     8    334.2    10.2    999.0   0.00  
 259   16:00  381.0    93   34.0     8    341.5    10.2    999.0   0.00  
 259   16:10  349.0    94   33.7     8    343.5     9.6    999.0   0.00  
 259   16:20  318.0    94   33.5     9    352.1    11.3    999.0   0.00  
 259   16:30  284.0    94   33.2     8    346.1    10.8    999.0   0.00  
 259   16:40  250.0    93   35.8     6     32.7    13.7    999.0   0.00  
 259   16:50  216.0    96   32.5     4    326.3     7.8    999.0   0.00  
 259   17:00  183.0    92   40.0     4    155.0    15.5    999.0   0.00  
 259   17:10  153.0    94   35.5     4    305.8     5.4    999.0   0.00  
 259   17:20  121.0    92   40.6     4    341.2     6.6    999.0   0.00  
 259   17:30   88.0    91   38.8     6    353.4     7.2    999.0   0.00  
 259   17:40   54.0    90   40.1     6    353.7     9.0    999.0   0.00  
 259   17:50   29.0    90   38.7     8    332.2     9.0    999.0   0.00  
 259   18:00   10.0    90   36.4     8    322.9    10.2    999.0   0.00  
 259   18:10    4.0    90   36.1     7    325.6     9.0    999.0   0.00  
 259   18:20    1.0    90   35.3     6    312.2     8.4    999.0   0.00  
 259   18:30    0.0    90   35.7     5    327.7     6.6    999.0   0.00  
 259   18:40    0.0    88   37.7     6    348.1     7.2    999.0   0.00  
 259   18:50    0.0    86   39.3     7    331.5     8.4    999.0   0.00  
 259   19:00    0.0    86   40.0     8    342.3     9.6    999.0   0.00  
 259   19:10    0.0    83   44.7    10      2.7    10.8    999.0   0.00  
 259   19:20    0.0    82   45.9    11      3.2    13.1    999.0   0.00  
 259   19:30    0.0    86   39.7    11     13.5    12.5    999.0   0.00  
 259   19:40    0.0    89   34.8    12     22.2    13.1    999.0   0.00  
 259   19:50    0.0    90   32.3    10      8.1    13.1    999.0   0.00  
 259   20:00    0.0    90   32.0    10    359.9    12.5    999.0   0.00  
 259   20:10    0.0    90   31.2    10      2.6    11.9    999.0   0.00  
 259   20:20    0.0    90   31.5     9      1.6    10.8    999.0   0.00  
 259   20:30    0.0    89   31.6     8    353.9     9.6    999.0   0.00  
 259   20:40    0.0    90   30.7     8    347.8     9.0    999.0   0.00  
 259   20:50    0.0    90   30.0     7    335.7     7.8    999.0   0.00  
 259   21:00    0.0    90   29.8     6    332.9     7.8    999.0   0.00  
 259   21:10    0.0    90   29.9     7    335.5     7.8    999.0   0.00  
 259   21:20    0.0    90   29.5     6    330.4     7.8    999.0   0.00  
 259   21:30    0.0    90   29.1     7    341.3     9.0    999.0   0.00  
 259   21:40    0.0    90   29.2     9    350.8    10.8    999.0   0.00  
 259   21:50    0.0    90   29.2     8    349.4    10.8    999.0   0.00  
 259   22:00    0.0    90   28.8     7    359.4     8.4    999.0   0.00  
 259   22:10    0.0    90   29.0     6      1.0     7.2    999.0   0.00  
 259   22:20    0.0    90   28.8     5      3.4     6.6    999.0   0.00  
 259   22:30    0.0    91   28.0     4    350.4     4.8    999.0   0.00  
 259   22:40    0.0    91   27.4     2     12.2     3.0    999.0   0.00  
 259   22:50    0.0    91   27.1     2    154.0     4.2    999.0   0.00  
 259   23:00    0.0    91   27.4     4    155.1     6.0    999.0   0.00  
 259   23:10    0.0    91   28.5     4    157.9     6.0    999.0   0.00  
 259   23:20    0.0    90   31.0     4    161.4     6.0    999.0   0.00  
 259   23:30    0.0    90   30.6     3    161.0     4.8    999.0   0.00  
 259   23:40    0.0    90   30.9     3    162.3     4.8    999.0   0.00  
 259   23:50    0.0    90   31.0     6    132.0     7.2    999.0   0.00  
 260    0:00    0.0    88   34.2     7    127.5     8.4    999.0   0.00  
 260    0:10    0.0    87   36.2     7    149.1     9.6    999.0   0.00  
 260    0:20    0.0    87   36.3     5    162.7     6.6    999.0   0.00  
 260    0:30    0.0    87   36.7     4    161.9     6.0    999.0   0.00  
 260    0:40    0.0    87   36.6     4    166.5     6.6    999.0   0.00  
 260    0:50    0.0    87   35.8     5    170.4     7.2    999.0   0.00  
 260    1:00    0.0    87   35.4     5    170.9     6.6    999.0   0.00  
 260    1:10    0.0    87   36.0     5    165.6     7.2    999.0   0.00  
 260    1:20    0.0    87   35.3     5    164.5     8.4    999.0   0.00  
 260    1:30    0.0    86   36.1     4    169.3     6.6    999.0   0.00  
 260    1:40    0.0    87   35.6     5    173.0     7.8    999.0   0.00  
 260    1:50    0.0    87   35.2     6    173.2     9.0    999.0   0.00  
 260    2:00    0.0    86   35.9     6    168.6     8.4    999.0   0.00  
 260    2:10    0.0    86   36.3     6    165.7     7.8    999.0   0.00  
 260    2:20    0.0    85   36.6     6    175.0     8.4    999.0   0.00  
 260    2:30    0.0    86   35.3     8    173.3    10.2    999.0   0.00  
 260    2:40    0.0    85   36.4     6    169.9     9.0    999.0   0.00  
 260    2:50    0.0    85   36.5     6    165.7     9.0    999.0   0.00  
 260    3:00    0.0    84   37.2     6    164.2     8.4    999.0   0.00  
 260    3:10    0.0    84   37.7     5    162.2     7.8    999.0   0.00  
 260    3:20    0.0    84   37.5     4    159.0     6.6    999.0   0.00  
 260    3:30    0.0    84   36.8     4    159.0     6.0    999.0   0.00  
 260    3:40    0.0    85   36.5     4    157.3     5.4    999.0   0.00  
 260    3:50    0.0    85   36.1     4    158.2     4.8    999.0   0.00  
 260    4:00    0.0    85   36.5     5    154.2     7.2    999.0   0.00  
 260    4:10    0.0    85   35.8     5    157.2     6.6    999.0   0.00  
 260    4:20    0.0    84   36.4     5    158.2     6.0    999.0   0.00  
 260    4:30    0.0    83   37.3     4    157.4     5.4    999.0   0.00  
 260    4:40    0.0    83   37.9     4    158.3     5.4    999.0   0.00  
 260    4:50    0.0    83   37.1     5    158.0     6.6    999.0   0.00  
 260    5:00    0.0    83   38.2     5    159.0     6.6    999.0   0.00  
 260    5:10    0.0    82   39.3     5    157.3     6.6    999.0   0.00  
 260    5:20    0.0    83   38.3     5    156.4     6.6    999.0   0.00  
 260    5:30    0.0    83   37.2     5    156.0     8.4    999.0   0.00  
 260    5:40    1.0    83   37.2     6    156.3     7.8    999.0   0.00  
 260    5:50    6.0    83   36.8     6    156.5     7.2    999.0   0.00  
 260    6:00   15.0    84   36.9     6    158.9     7.8    999.0   0.00  
 260    6:10   34.0    85   37.6     6    155.1     9.0    999.0   0.00  
 260    6:20   61.0    85   37.7     7    157.8     9.0    999.0   0.00  
 260    6:30   95.0    86   37.6     7    156.6     9.0    999.0   0.00  
 260    6:40  127.0    86   37.8     8    152.9    11.3    999.0   0.00  
 260    6:50  158.0    86   38.5     8    154.7    10.8    999.0   0.00  
 260    7:00  190.0    87   37.3     7    152.3    11.3    999.0   0.00  
 260    7:10  223.0    87   36.2     7    151.7    10.2    999.0   0.00  
 260    7:20  257.0    87   36.2     6    154.4    11.3    999.0   0.00  
 260    7:30  290.0    87   36.2     7    155.9    10.2    999.0   0.00  
 260    7:40  322.0    86   40.8     5    156.7     8.4    999.0   0.00  
 260    7:50  355.0    87   38.7     6    158.3     8.4    999.0   0.00  
 260    8:00  387.0    88   38.7     6    158.7     8.4    999.0   0.00  
 260    8:10  419.0    87   40.9     6    158.6     9.0    999.0   0.00  
 260    8:20  450.0    88   40.0     6    159.2     9.0    999.0   0.00  
 260    8:30  480.0    87   43.7     7    163.4    10.2    999.0   0.00  
 260    8:40  509.0    87   42.1     7    157.2    10.2    999.0   0.00  
 260    8:50  538.0    88   41.1     7    160.6    10.8    999.0   0.00  
 260    9:00  565.0    88   41.6     7    160.0    11.9    999.0   0.00  
 260    9:10  591.0    88   41.7     8    162.9    11.9    999.0   0.00  
 260    9:20  617.0    87   41.7     8    167.3    11.3    999.0   0.00  
 260    9:30  641.0    86   41.7     7    167.0    10.2    999.0   0.00  

Return to Cactus Peak graphs page.


Western Regional Climate Center,wrcc@dri.edu